Time;durP1;ratioP1;P1;durP2;ratioP2;P2;SDS_P1;SDS_P2;PMS_P1;PMS_P2;Temp;Humidity;BMP_temperature;BMP_pressure;BME280_temperature;BME280_humidity;BME280_pressure;Samples;Min_cycle;Max_cycle;Signal;HPM_P1;HPM_P2
2022/08/23 00:01:05;;;;;;;;;;;;;;;;;;5096448;28;19927;-82
2022/08/23 00:03:31;;;;;;;;;;;;;;;;;;5096653;28;19919;-82
2022/08/23 00:05:56;;;;;;;;;;;;;;;;;;5079983;28;19916;-82
2022/08/23 00:08:23;;;;;;;;;;;;;;;;;;5083682;28;19956;-82
2022/08/23 00:10:48;;;;;;;;;;;;;;;;;;5100175;28;19994;-81
2022/08/23 00:13:13;;;;;;;;;;;;;;;;;;5118584;28;19943;-81
2022/08/23 00:15:39;;;;;;;;;;;;;;;;;;5083230;28;19916;-81
2022/08/23 00:18:04;;;;;;;;;;;;;;;;;;5100366;28;20004;-81
2022/08/23 00:20:29;;;;;;;;;;;;;;;;;;5118709;28;20288;-81
2022/08/23 00:22:56;;;;;;;;;;;;;;;;;;5100190;28;19916;-82
2022/08/23 00:25:22;;;;;;;;;;;;;;;;;;5083058;28;19923;-81
2022/08/23 00:27:47;;;;;;;;;;;;;;;;;;5118231;28;19916;-82
2022/08/23 00:30:13;;;;;;;;;;;;;;;;;;5118546;28;19923;-82
2022/08/23 00:32:38;;;;;;;;;;;;;;;;;;5118177;28;19958;-81
2022/08/23 00:35:05;;;;;;;;;;;;;;;;;;5100031;28;19956;-81
2022/08/23 00:37:31;;;;;;;;;;;;;;;;;;5099883;28;19951;-82
2022/08/23 00:39:56;;;;;;;;;;;;;;;;;;5099936;28;19966;-82
2022/08/23 00:47:49;;;;;;;;;;;;;;;;;;5102875;28;20408;-82
2022/08/23 00:50:22;;;;;;;;;;;;;;;;;;5083004;28;19955;-82
2022/08/23 00:53:04;;;;;;;;;;;;;;;;;;5099378;28;19973;-81
2022/08/23 00:55:30;;;;;;;;;;;;;;;;;;5099720;28;19923;-82
2022/08/23 00:57:55;;;;;;;;;;;;;;;;;;5099567;28;20269;-81
2022/08/23 01:00:21;;;;;;;;;;;;;;;;;;5099464;28;20015;-82
2022/08/23 01:02:46;;;;;;;;;;;;;;;;;;5099686;28;19962;-82
2022/08/23 01:05:11;;;;;;;;;;;;;;;;;;5099913;28;19916;-81
2022/08/23 01:07:51;;;;;;;;;;;;;;;;;;5117801;28;19923;-81
2022/08/23 01:10:20;;;;;;;;;;;;;;;;;;5100477;28;19965;-82
2022/08/23 01:12:46;;;;;;;;;;;;;;;;;;5099685;28;19920;-81
2022/08/23 01:15:26;;;;;;;;;;;;;;;;;;5117505;28;19916;-81
2022/08/23 01:18:01;;;;;;;;;;;;;;;;;;5082165;28;19916;-81
2022/08/23 01:20:27;;;;;;;;;;;;;;;;;;5099575;28;19954;-82
2022/08/23 01:22:57;;;;;;;;;;;;;;;;;;5082322;28;19951;-81
2022/08/23 01:25:23;;;;;;;;;;;;;;;;;;5099002;28;20010;-80
2022/08/23 01:27:49;;;;;;;;;;;;;;;;;;5099007;28;20277;-82
2022/08/23 01:30:16;;;;;;;;;;;;;;;;;;5098938;28;20052;-81
2022/08/23 01:32:53;;;;;;;;;;;;;;;;;;5117087;28;20010;-82
2022/08/23 01:35:19;;;;;;;;;;;;;;;;;;5098962;28;19915;-82
2022/08/23 01:37:45;;;;;;;;;;;;;;;;;;5098615;28;20056;-81
2022/08/23 01:40:10;;;;;;;;;;;;;;;;;;5082126;28;19916;-81
2022/08/23 01:42:38;;;;;;;;;;;;;;;;;;5116830;28;19916;-81
2022/08/23 01:45:04;;;;;;;;;;;;;;;;;;5081932;28;20258;-82
2022/08/23 01:47:30;;;;;;;;;;;;;;;;;;5117036;28;20071;-81
2022/08/23 01:49:56;;;;;;;;;;;;;;;;;;5098844;28;20014;-82
2022/08/23 01:52:21;;;;;;;;;;;;;;;;;;5116386;28;19958;-82
2022/08/23 01:54:46;;;;;;;;;;;;;;;;;;5116636;28;19923;-82
2022/08/23 01:57:11;;;;;;;;;;;;;;;;;;5116577;28;19923;-82
2022/08/23 01:59:37;;;;;;;;;;;;;;;;;;5081255;28;19950;-81
2022/08/23 02:02:02;;;;;;;;;;;;;;;;;;5098585;28;19919;-81
2022/08/23 02:04:28;;;;;;;;;;;;;;;;;;5116465;28;19916;-81
2022/08/23 02:06:53;;;;;;;;;;;;;;;;;;5116072;28;19944;-81
2022/08/23 02:09:18;;;;;;;;;;;;;;;;;;5098404;28;19916;-81
2022/08/23 02:11:44;;;;;;;;;;;;;;;;;;5080968;28;19916;-81
2022/08/23 02:14:10;;;;;;;;;;;;;;;;;;5116220;28;19922;-82
2022/08/23 02:16:39;;;;;;;;;;;;;;;;;;5098065;28;19916;-82
2022/08/23 02:19:05;;;;;;;;;;;;;;;;;;5081259;28;20017;-81
2022/08/23 02:21:30;;;;;;;;;;;;;;;;;;5115896;28;19920;-80
2022/08/23 02:23:56;;;;;;;;;;;;;;;;;;5116191;28;19935;-81
2022/08/23 02:26:23;;;;;;;;;;;;;;;;;;5081155;28;19922;-82
2022/08/23 02:28:51;;;;;;;;;;;;;;;;;;5097273;28;20329;-81
2022/08/23 02:31:17;;;;;;;;;;;;;;;;;;5080711;28;19915;-82
2022/08/23 02:33:42;;;;;;;;;;;;;;;;;;5116119;28;19915;-81
2022/08/23 02:36:07;;;;;;;;;;;;;;;;;;5115694;28;19955;-82
2022/08/23 02:38:33;;;;;;;;;;;;;;;;;;5097872;28;20330;-81
2022/08/23 02:41:00;;;;;;;;;;;;;;;;;;5115740;28;19923;-80
2022/08/23 02:43:25;;;;;;;;;;;;;;;;;;5115942;28;20388;-81
2022/08/23 02:45:51;;;;;;;;;;;;;;;;;;5097760;28;19915;-82
2022/08/23 02:48:16;;;;;;;;;;;;;;;;;;5115652;28;19916;-81
2022/08/23 02:50:42;;;;;;;;;;;;;;;;;;5115341;28;20326;-82
2022/08/23 02:53:07;;;;;;;;;;;;;;;;;;5097525;28;19915;-82
2022/08/23 02:55:32;;;;;;;;;;;;;;;;;;5097298;28;19916;-81
2022/08/23 02:57:58;;;;;;;;;;;;;;;;;;5097226;28;19950;-80
2022/08/23 03:00:23;;;;;;;;;;;;;;;;;;5115209;28;19952;-81
2022/08/23 03:02:48;;;;;;;;;;;;;;;;;;5080116;28;19915;-81
2022/08/23 03:05:14;;;;;;;;;;;;;;;;;;5097068;28;19920;-81
2022/08/23 03:07:39;;;;;;;;;;;;;;;;;;5080531;28;19916;-82
2022/08/23 03:10:05;;;;;;;;;;;;;;;;;;5097128;28;19916;-81
2022/08/23 03:12:31;;;;;;;;;;;;;;;;;;5097005;28;19939;-81
2022/08/23 03:14:56;;;;;;;;;;;;;;;;;;5080478;28;20341;-82
2022/08/23 03:17:21;;;;;;;;;;;;;;;;;;5096735;28;19945;-81
2022/08/23 03:19:47;;;;;;;;;;;;;;;;;;5096899;28;19920;-81
2022/08/23 03:22:12;;;;;;;;;;;;;;;;;;5115083;28;19912;-81
2022/08/23 03:24:38;;;;;;;;;;;;;;;;;;5080054;28;19945;-81
2022/08/23 03:27:03;;;;;;;;;;;;;;;;;;5096927;28;19959;-81
2022/08/23 03:29:30;;;;;;;;;;;;;;;;;;5096898;28;19965;-82
2022/08/23 03:31:56;;;;;;;;;;;;;;;;;;5096999;28;19916;-81
2022/08/23 03:34:21;;;;;;;;;;;;;;;;;;5097219;28;20345;-81
2022/08/23 03:36:46;;;;;;;;;;;;;;;;;;5096733;28;20318;-81
2022/08/23 03:39:12;;;;;;;;;;;;;;;;;;5114826;28;20020;-82
2022/08/23 03:41:37;;;;;;;;;;;;;;;;;;5113796;28;19996;-81
2022/08/23 03:46:47;;;;;;;;;;;;;;;;;;5114748;28;19923;-82
2022/08/23 03:49:12;;;;;;;;;;;;;;;;;;5114852;28;20253;-82
2022/08/23 03:51:37;;;;;;;;;;;;;;;;;;5096795;28;20322;-82
2022/08/23 03:54:03;;;;;;;;;;;;;;;;;;5096455;28;19912;-81
2022/08/23 03:56:30;;;;;;;;;;;;;;;;;;5096681;28;19915;-81
2022/08/23 03:58:56;;;;;;;;;;;;;;;;;;5096512;28;19936;-82
2022/08/23 04:01:22;;;;;;;;;;;;;;;;;;5095899;28;20414;-82
2022/08/23 04:03:47;;;;;;;;;;;;;;;;;;5079567;28;20416;-81
2022/08/23 04:06:13;;;;;;;;;;;;;;;;;;5096274;28;19962;-81
2022/08/23 04:08:38;;;;;;;;;;;;;;;;;;5096558;28;19915;-81
2022/08/23 04:11:03;;;;;;;;;;;;;;;;;;5079862;28;20227;-81
2022/08/23 04:13:29;;;;;;;;;;;;;;;;;;5096411;28;20004;-81
2022/08/23 04:15:55;;;;;;;;;;;;;;;;;;5096260;28;19969;-82
2022/08/23 04:18:21;;;;;;;;;;;;;;;;;;5096385;28;19919;-82
2022/08/23 04:20:46;;;;;;;;;;;;;;;;;;5114788;28;19922;-81
2022/08/23 04:23:12;;;;;;;;;;;;;;;;;;5079462;28;19920;-81
2022/08/23 04:25:37;;;;;;;;;;;;;;;;;;5096306;28;20351;-80
2022/08/23 04:28:03;;;;;;;;;;;;;;;;;;5096224;28;20397;-80
2022/08/23 04:30:29;;;;;;;;;;;;;;;;;;5096097;28;19923;-81
2022/08/23 04:32:54;;;;;;;;;;;;;;;;;;5096370;28;19919;-82
2022/08/23 04:35:19;;;;;;;;;;;;;;;;;;5096130;28;20010;-81
2022/08/23 04:37:45;;;;;;;;;;;;;;;;;;5114210;28;19958;-81
2022/08/23 04:42:54;;;;;;;;;;;;;;;;;;5098886;28;19922;-82
2022/08/23 04:45:19;;;;;;;;;;;;;;;;;;5079076;28;19915;-79
2022/08/23 04:47:44;;;;;;;;;;;;;;;;;;5096619;28;19973;-79
2022/08/23 04:50:10;;;;;;;;;;;;;;;;;;5096113;28;19947;-78
2022/08/23 04:52:35;;;;;;;;;;;;;;;;;;5080599;28;20333;-79
2022/08/23 04:55:01;;;;;;;;;;;;;;;;;;5099808;28;20410;-78
2022/08/23 04:57:26;;;;;;;;;;;;;;;;;;5099885;28;20248;-79
2022/08/23 04:59:52;;;;;;;;;;;;;;;;;;5099430;28;19920;-79
2022/08/23 05:02:19;;;;;;;;;;;;;;;;;;5099721;28;20264;-79
2022/08/23 05:04:44;;;;;;;;;;;;;;;;;;5082671;28;19923;-79
2022/08/23 05:07:10;;;;;;;;;;;;;;;;;;5099507;28;19916;-79
2022/08/23 05:09:35;;;;;;;;;;;;;;;;;;5099756;28;19915;-78
2022/08/23 05:12:00;;;;;;;;;;;;;;;;;;5117908;28;19916;-77
2022/08/23 05:14:26;;;;;;;;;;;;;;;;;;5082546;28;20002;-78
2022/08/23 05:16:51;;;;;;;;;;;;;;;;;;5082192;28;19916;-78
2022/08/23 05:19:16;;;;;;;;;;;;;;;;;;5099345;28;19998;-78
2022/08/23 05:21:42;;;;;;;;;;;;;;;;;;5099419;28;20008;-79
2022/08/23 05:24:07;;;;;;;;;;;;;;;;;;5099078;28;19923;-79
2022/08/23 05:26:32;;;;;;;;;;;;;;;;;;5099147;28;19923;-78
2022/08/23 05:28:58;;;;;;;;;;;;;;;;;;5098744;28;19918;-77
2022/08/23 05:31:24;;;;;;;;;;;;;;;;;;5099097;28;19920;-78
2022/08/23 05:33:49;;;;;;;;;;;;;;;;;;5099044;28;19923;-79
2022/08/23 05:36:15;;;;;;;;;;;;;;;;;;5099251;28;19915;-78
2022/08/23 05:38:40;;;;;;;;;;;;;;;;;;5117220;28;19915;-77
2022/08/23 05:41:06;;;;;;;;;;;;;;;;;;5098959;28;19923;-78
2022/08/23 05:43:32;;;;;;;;;;;;;;;;;;5098650;28;19920;-77
2022/08/23 05:46:01;;;;;;;;;;;;;;;;;;5082500;28;19922;-77
2022/08/23 05:48:26;;;;;;;;;;;;;;;;;;5082107;28;20006;-78
2022/08/23 05:50:52;;;;;;;;;;;;;;;;;;5081883;28;20045;-79
2022/08/23 05:53:18;;;;;;;;;;;;;;;;;;5099037;28;19939;-78
2022/08/23 05:55:43;;;;;;;;;;;;;;;;;;5099051;28;20314;-79
2022/08/23 05:58:09;;;;;;;;;;;;;;;;;;5098377;28;20068;-79
2022/08/23 06:00:34;;;;;;;;;;;;;;;;;;5116670;28;19999;-79
2022/08/23 06:03:00;;;;;;;;;;;;;;;;;;5116478;28;20375;-79
2022/08/23 06:05:25;;;;;;;;;;;;;;;;;;5097750;28;19923;-78
2022/08/23 06:07:51;;;;;;;;;;;;;;;;;;5081744;28;19915;-78
2022/08/23 06:10:19;;;;;;;;;;;;;;;;;;5081590;28;19915;-78
2022/08/23 06:12:44;;;;;;;;;;;;;;;;;;5081697;28;19946;-80
2022/08/23 06:15:09;;;;;;;;;;;;;;;;;;5081514;28;19958;-81
2022/08/23 06:17:35;;;;;;;;;;;;;;;;;;5098492;28;19916;-82
2022/08/23 06:20:01;;;;;;;;;;;;;;;;;;5098083;28;19963;-84
2022/08/23 06:22:28;;;;;;;;;;;;;;;;;;5081677;28;19922;-83
2022/08/23 06:24:53;;;;;;;;;;;;;;;;;;5116207;28;19959;-82
2022/08/23 06:27:18;;;;;;;;;;;;;;;;;;5115869;28;19923;-82
2022/08/23 06:29:44;;;;;;;;;;;;;;;;;;5098048;28;19998;-83
2022/08/23 06:32:10;;;;;;;;;;;;;;;;;;5116087;28;20301;-80
2022/08/23 06:34:35;;;;;;;;;;;;;;;;;;5098715;28;19926;-80
2022/08/23 06:37:03;;;;;;;;;;;;;;;;;;5117042;28;19916;-78
2022/08/23 06:39:30;;;;;;;;;;;;;;;;;;5098993;28;19915;-79
2022/08/23 06:42:05;;;;;;;;;;;;;;;;;;5097443;28;19916;-79
2022/08/23 06:44:31;;;;;;;;;;;;;;;;;;5097419;28;19916;-79
2022/08/23 06:46:57;;;;;;;;;;;;;;;;;;5097446;28;19949;-79
2022/08/23 06:49:22;;;;;;;;;;;;;;;;;;5080635;28;19911;-80
2022/08/23 06:51:49;;;;;;;;;;;;;;;;;;5080267;28;20364;-77
2022/08/23 06:54:14;;;;;;;;;;;;;;;;;;5097320;28;19916;-79
2022/08/23 06:56:40;;;;;;;;;;;;;;;;;;5115241;28;19935;-80
2022/08/23 06:59:06;;;;;;;;;;;;;;;;;;5097679;28;19916;-82
2022/08/23 07:01:37;;;;;;;;;;;;;;;;;;5115176;28;19930;-77
2022/08/23 07:04:03;;;;;;;;;;;;;;;;;;5115260;28;20306;-87
2022/08/23 07:06:29;;;;;;;;;;;;;;;;;;5097112;28;19922;-85
2022/08/23 07:08:54;;;;;;;;;;;;;;;;;;5097106;28;20330;-86
2022/08/23 07:11:20;;;;;;;;;;;;;;;;;;5096818;28;19916;-86
2022/08/23 07:13:45;;;;;;;;;;;;;;;;;;5097145;28;19919;-86
2022/08/23 07:16:11;;;;;;;;;;;;;;;;;;5114916;28;19926;-87
2022/08/23 07:18:36;;;;;;;;;;;;;;;;;;5096946;28;19965;-85
2022/08/23 07:21:02;;;;;;;;;;;;;;;;;;5115893;28;20377;-85
2022/08/23 07:23:32;;;;;;;;;;;;;;;;;;5080032;28;19968;-86
2022/08/23 07:26:00;;;;;;;;;;;;;;;;;;5097039;28;19916;-87
2022/08/23 07:28:26;;;;;;;;;;;;;;;;;;5080128;28;19916;-84
2022/08/23 07:30:51;;;;;;;;;;;;;;;;;;5096861;28;20006;-87
2022/08/23 07:33:17;;;;;;;;;;;;;;;;;;5080022;28;20256;-86
2022/08/23 07:35:48;;;;;;;;;;;;;;;;;;5096931;28;19981;-85
2022/08/23 07:38:14;;;;;;;;;;;;;;;;;;5096502;28;19923;-86
2022/08/23 07:40:40;;;;;;;;;;;;;;;;;;5096944;28;19916;-86
2022/08/23 07:43:05;;;;;;;;;;;;;;;;;;5114974;28;19973;-86
2022/08/23 07:45:30;;;;;;;;;;;;;;;;;;5096555;28;19915;-86
2022/08/23 07:47:56;;;;;;;;;;;;;;;;;;5114661;28;19923;-86
2022/08/23 07:50:21;;;;;;;;;;;;;;;;;;5096744;28;20006;-87
2022/08/23 07:52:46;;;;;;;;;;;;;;;;;;5096470;28;20003;-86
2022/08/23 07:55:12;;;;;;;;;;;;;;;;;;5096463;28;20242;-85
2022/08/23 07:57:37;;;;;;;;;;;;;;;;;;5115093;28;20327;-86
2022/08/23 08:00:03;;;;;;;;;;;;;;;;;;5096618;28;19927;-86
2022/08/23 08:02:28;;;;;;;;;;;;;;;;;;5096781;28;19915;-80
2022/08/23 08:04:53;;;;;;;;;;;;;;;;;;5079656;28;19939;-80
2022/08/23 08:07:20;;;;;;;;;;;;;;;;;;5114410;28;19916;-82
2022/08/23 08:09:46;;;;;;;;;;;;;;;;;;5096405;28;19916;-79
2022/08/23 08:12:11;;;;;;;;;;;;;;;;;;5114470;28;20522;-79
2022/08/23 08:14:36;;;;;;;;;;;;;;;;;;5096382;28;19916;-80
2022/08/23 08:17:02;;;;;;;;;;;;;;;;;;5114589;28;19999;-80
2022/08/23 08:19:28;;;;;;;;;;;;;;;;;;5114794;28;20244;-79
2022/08/23 08:21:53;;;;;;;;;;;;;;;;;;5096273;28;20002;-79
2022/08/23 08:24:18;;;;;;;;;;;;;;;;;;5079945;28;20031;-81
2022/08/23 08:26:44;;;;;;;;;;;;;;;;;;5114615;28;19920;-80
2022/08/23 08:29:10;;;;;;;;;;;;;;;;;;5100248;28;19956;-80
2022/08/23 08:31:37;;;;;;;;;;;;;;;;;;5100307;28;19916;-80
2022/08/23 08:34:08;;;;;;;;;;;;;;;;;;5100590;28;19916;-81
2022/08/23 08:36:35;;;;;;;;;;;;;;;;;;5100727;28;19915;-79
2022/08/23 08:39:02;;;;;;;;;;;;;;;;;;5116505;28;19954;-83
2022/08/23 08:41:36;;;;;;;;;;;;;;;;;;5114431;28;19920;-79
2022/08/23 08:44:28;;;;;;;;;;;;;;;;;;5129885;28;19935;-81
2022/08/23 08:46:55;;;;;;;;;;;;;;;;;;5070736;28;20358;-79
2022/08/23 08:49:30;;;;;;;;;;;;;;;;;;5101965;28;19934;-80
2022/08/23 08:51:57;;;;;;;;;;;;;;;;;;5118229;28;19930;-81
2022/08/23 08:54:23;;;;;;;;;;;;;;;;;;5099987;28;19912;-80
2022/08/23 08:56:50;;;;;;;;;;;;;;;;;;5100483;28;19938;-79
2022/08/23 08:59:19;;;;;;;;;;;;;;;;;;5083304;28;19951;-78
2022/08/23 09:01:46;;;;;;;;;;;;;;;;;;5099707;28;19966;-78
2022/08/23 09:04:11;;;;;;;;;;;;;;;;;;5083066;28;19920;-78
2022/08/23 09:06:51;;;;;;;;;;;;;;;;;;5099571;28;20364;-79
2022/08/23 09:09:17;;;;;;;;;;;;;;;;;;5082412;28;20391;-80
2022/08/23 09:12:00;;;;;;;;;;;;;;;;;;5099643;28;19916;-79
2022/08/23 09:14:41;;;;;;;;;;;;;;;;;;5117746;28;19916;-79
2022/08/23 09:17:18;;;;;;;;;;;;;;;;;;5117207;28;19969;-80
2022/08/23 09:19:44;;;;;;;;;;;;;;;;;;5099604;28;19916;-78
2022/08/23 09:22:13;;;;;;;;;;;;;;;;;;5100391;28;19926;-79
2022/08/23 09:24:39;;;;;;;;;;;;;;;;;;5100513;28;20261;-80
2022/08/23 09:27:04;;;;;;;;;;;;;;;;;;5083048;28;20345;-81
2022/08/23 09:29:31;;;;;;;;;;;;;;;;;;5117582;28;19916;-81
2022/08/23 09:32:00;;;;;;;;;;;;;;;;;;5117783;28;19955;-79
2022/08/23 09:34:35;;;;;;;;;;;;;;;;;;5116875;28;20020;-79
2022/08/23 09:37:12;;;;;;;;;;;;;;;;;;5116941;28;19927;-78
2022/08/23 09:39:40;;;;;;;;;;;;;;;;;;5116979;28;19922;-79
2022/08/23 09:42:26;;;;;;;;;;;;;;;;;;5116946;28;19927;-79
2022/08/23 09:44:51;;;;;;;;;;;;;;;;;;5117119;28;19916;-79
2022/08/23 09:47:17;;;;;;;;;;;;;;;;;;5098834;28;19973;-80
2022/08/23 09:49:43;;;;;;;;;;;;;;;;;;5098543;28;19923;-79
2022/08/23 09:52:25;;;;;;;;;;;;;;;;;;5099215;28;19999;-80
2022/08/23 09:54:55;;;;;;;;;;;;;;;;;;5098379;28;20303;-78
2022/08/23 09:57:22;;;;;;;;;;;;;;;;;;5098436;28;19946;-81
2022/08/23 09:59:50;;;;;;;;;;;;;;;;;;5098300;28;19920;-81
2022/08/23 10:02:22;;;;;;;;;;;;;;;;;;5081768;28;19916;-80
2022/08/23 10:04:55;;;;;;;;;;;;;;;;;;5116245;28;19958;-79
2022/08/23 10:07:32;;;;;;;;;;;;;;;;;;5098573;28;20241;-79
2022/08/23 10:10:16;;;;;;;;;;;;;;;;;;5098619;28;19911;-79
2022/08/23 10:12:42;;;;;;;;;;;;;;;;;;5116583;28;20382;-79
2022/08/23 10:15:08;;;;;;;;;;;;;;;;;;5116392;28;19920;-80
2022/08/23 10:17:40;;;;;;;;;;;;;;;;;;5098262;28;19916;-79
2022/08/23 10:20:05;;;;;;;;;;;;;;;;;;5081378;28;20366;-78
2022/08/23 10:22:43;;;;;;;;;;;;;;;;;;5098291;28;19916;-77
2022/08/23 10:25:11;;;;;;;;;;;;;;;;;;5081251;28;19923;-78
2022/08/23 10:30:40;;;;;;;;;;;;;;;;;;5116248;28;19933;-77
2022/08/23 10:33:07;;;;;;;;;;;;;;;;;;5097913;28;19923;-78
2022/08/23 10:35:44;;;;;;;;;;;;;;;;;;5098265;28;19963;-78
2022/08/23 10:38:16;;;;;;;;;;;;;;;;;;5116267;28;19912;-77
2022/08/23 10:40:47;;;;;;;;;;;;;;;;;;5116027;28;19951;-78
2022/08/23 10:43:24;;;;;;;;;;;;;;;;;;5098025;28;20400;-78
2022/08/23 10:45:50;;;;;;;;;;;;;;;;;;5098910;28;19916;-78
2022/08/23 10:48:27;;;;;;;;;;;;;;;;;;5097824;28;19923;-78
2022/08/23 10:50:58;;;;;;;;;;;;;;;;;;5097980;28;19965;-80
2022/08/23 10:53:27;;;;;;;;;;;;;;;;;;5115777;28;19973;-79
2022/08/23 10:56:01;;;;;;;;;;;;;;;;;;5097928;28;19922;-76
2022/08/23 10:58:29;;;;;;;;;;;;;;;;;;5115665;28;19920;-77
2022/08/23 11:00:55;;;;;;;;;;;;;;;;;;5080671;28;19920;-78
2022/08/23 11:03:20;;;;;;;;;;;;;;;;;;5080569;28;20253;-79
2022/08/23 11:06:05;;;;;;;;;;;;;;;;;;5115573;28;19923;-77
2022/08/23 11:08:35;;;;;;;;;;;;;;;;;;5115806;28;20016;-79
2022/08/23 11:11:00;;;;;;;;;;;;;;;;;;5080760;28;20338;-79
2022/08/23 11:13:26;;;;;;;;;;;;;;;;;;5097205;28;19923;-79
2022/08/23 11:15:54;;;;;;;;;;;;;;;;;;5080251;28;19922;-78
2022/08/23 11:18:38;;;;;;;;;;;;;;;;;;5115299;28;20310;-79
2022/08/23 11:21:03;;;;;;;;;;;;;;;;;;5097407;28;19915;-79
2022/08/23 11:23:42;;;;;;;;;;;;;;;;;;5115208;28;19916;-77
2022/08/23 11:26:08;;;;;;;;;;;;;;;;;;5097082;28;19915;-78
2022/08/23 11:28:42;;;;;;;;;;;;;;;;;;5097449;28;19915;-78
2022/08/23 11:31:10;;;;;;;;;;;;;;;;;;5097060;28;20292;-78
2022/08/23 11:33:41;;;;;;;;;;;;;;;;;;5114911;28;19915;-77
2022/08/23 11:36:07;;;;;;;;;;;;;;;;;;5096724;28;19916;-78
2022/08/23 11:38:47;;;;;;;;;;;;;;;;;;5114819;28;19922;-78
2022/08/23 11:41:19;;;;;;;;;;;;;;;;;;5096622;28;20342;-79
2022/08/23 11:43:48;;;;;;;;;;;;;;;;;;5096211;28;19916;-78
2022/08/23 11:46:26;;;;;;;;;;;;;;;;;;5096470;28;19958;-78
2022/08/23 11:48:51;;;;;;;;;;;;;;;;;;5114653;28;19955;-77
2022/08/23 11:51:35;;;;;;;;;;;;;;;;;;5114990;28;19916;-78
2022/08/23 11:54:20;;;;;;;;;;;;;;;;;;5114653;28;20329;-77
2022/08/23 11:56:46;;;;;;;;;;;;;;;;;;5055414;28;19915;-79
2022/08/23 11:59:11;;;;;;;;;;;;;;;;;;5114429;28;19916;-78
2022/08/23 12:01:38;;;;;;;;;;;;;;;;;;5113312;28;19949;-78
2022/08/23 12:04:22;;;;;;;;;;;;;;;;;;5099104;28;19919;-80
2022/08/23 12:06:54;;;;;;;;;;;;;;;;;;5117216;28;19916;-79
2022/08/23 12:09:20;;;;;;;;;;;;;;;;;;5083058;28;20348;-78
2022/08/23 12:11:51;;;;;;;;;;;;;;;;;;5099150;28;19916;-78
2022/08/23 12:14:35;;;;;;;;;;;;;;;;;;5116759;28;20341;-79
2022/08/23 12:17:01;;;;;;;;;;;;;;;;;;5099299;28;19919;-78
2022/08/23 12:19:45;;;;;;;;;;;;;;;;;;5098557;28;19912;-77
2022/08/23 12:22:11;;;;;;;;;;;;;;;;;;5099062;28;19965;-75
2022/08/23 12:24:57;;;;;;;;;;;;;;;;;;5098673;28;19922;-77
2022/08/23 12:27:33;;;;;;;;;;;;;;;;;;5116877;28;19916;-78
2022/08/23 12:30:17;;;;;;;;;;;;;;;;;;5098504;28;20345;-78
2022/08/23 12:32:42;;;;;;;;;;;;;;;;;;5098754;28;19912;-82
2022/08/23 12:35:27;;;;;;;;;;;;;;;;;;5098840;28;19930;-84
2022/08/23 12:38:01;;;;;;;;;;;;;;;;;;5098867;28;20008;-82
2022/08/23 12:40:29;;;;;;;;;;;;;;;;;;5116866;28;19951;-79
2022/08/23 12:43:01;;;;;;;;;;;;;;;;;;5081578;28;19912;-78
2022/08/23 12:45:27;;;;;;;;;;;;;;;;;;5081725;28;19915;-82
2022/08/23 12:47:57;;;;;;;;;;;;;;;;;;5098324;28;19939;-80
2022/08/23 12:50:32;;;;;;;;;;;;;;;;;;5081993;28;19935;-82
2022/08/23 12:53:03;;;;;;;;;;;;;;;;;;5099002;28;19938;-83
2022/08/23 12:55:29;;;;;;;;;;;;;;;;;;5098444;28;19916;-84
2022/08/23 12:57:56;;;;;;;;;;;;;;;;;;5098264;28;19916;-82
2022/08/23 13:00:23;;;;;;;;;;;;;;;;;;5049465;28;1895674;-81
2022/08/23 13:03:09;;;;;;;;;;;;;;;;;;5099792;28;19970;-80
2022/08/23 13:05:39;;;;;;;;;;;;;;;;;;5117013;28;19920;-83
2022/08/23 13:08:08;;;;;;;;;;;;;;;;;;5117786;28;19916;-83
2022/08/23 13:10:34;;;;;;;;;;;;;;;;;;5099502;28;19964;-82
2022/08/23 13:12:59;;;;;;;;;;;;;;;;;;5099342;28;19920;-84
2022/08/23 13:15:42;;;;;;;;;;;;;;;;;;5099406;28;19915;-83
2022/08/23 13:18:07;;;;;;;;;;;;;;;;;;5099509;28;20330;-82
2022/08/23 13:20:32;;;;;;;;;;;;;;;;;;5082713;28;19961;-83
2022/08/23 13:22:59;;;;;;;;;;;;;;;;;;5082365;28;19965;-83
2022/08/23 13:25:25;;;;;;;;;;;;;;;;;;5117463;28;19916;-84
2022/08/23 13:27:52;;;;;;;;;;;;;;;;;;5099346;28;19915;-83
2022/08/23 13:30:37;;;;;;;;;;;;;;;;;;5082635;28;19938;-83
2022/08/23 13:33:08;;;;;;;;;;;;;;;;;;5099275;28;19928;-83
2022/08/23 13:35:42;;;;;;;;;;;;;;;;;;5099423;28;19923;-83
2022/08/23 13:38:14;;;;;;;;;;;;;;;;;;5099175;28;19989;-83
2022/08/23 13:40:39;;;;;;;;;;;;;;;;;;5099100;28;19946;-82
2022/08/23 13:43:06;;;;;;;;;;;;;;;;;;5098531;28;19916;-82
2022/08/23 13:45:33;;;;;;;;;;;;;;;;;;5098936;28;20568;-83
2022/08/23 13:48:18;;;;;;;;;;;;;;;;;;5082229;28;20240;-82
2022/08/23 13:50:44;;;;;;;;;;;;;;;;;;5116173;28;19973;-83
2022/08/23 13:53:10;;;;;;;;;;;;;;;;;;5116964;28;20284;-84
2022/08/23 13:55:53;;;;;;;;;;;;;;;;;;5117169;28;19916;-84
2022/08/23 13:58:31;;;;;;;;;;;;;;;;;;5098674;28;19923;-83
2022/08/23 14:00:57;;;;;;;;;;;;;;;;;;5081754;28;20240;-83
2022/08/23 14:03:22;;;;;;;;;;;;;;;;;;5098524;28;20006;-84
2022/08/23 14:05:48;;;;;;;;;;;;;;;;;;5098518;28;19947;-84
2022/08/23 14:08:13;;;;;;;;;;;;;;;;;;5098433;28;20300;-84
2022/08/23 14:10:39;;;;;;;;;;;;;;;;;;5116282;28;19916;-84
2022/08/23 14:13:05;;;;;;;;;;;;;;;;;;5098243;28;19916;-83
2022/08/23 14:15:30;;;;;;;;;;;;;;;;;;5081766;28;19981;-83
2022/08/23 14:17:55;;;;;;;;;;;;;;;;;;5098419;28;20016;-83
2022/08/23 14:20:22;;;;;;;;;;;;;;;;;;5098220;28;19919;-83
2022/08/23 14:22:47;;;;;;;;;;;;;;;;;;5098256;28;20617;-83
2022/08/23 14:25:12;;;;;;;;;;;;;;;;;;5097055;28;19915;-83
2022/08/23 14:27:38;;;;;;;;;;;;;;;;;;5098175;28;19916;-84
2022/08/23 14:30:04;;;;;;;;;;;;;;;;;;5081305;28;19972;-83
2022/08/23 14:32:30;;;;;;;;;;;;;;;;;;5116502;28;20326;-83
2022/08/23 14:34:55;;;;;;;;;;;;;;;;;;5098523;28;19970;-83
2022/08/23 14:37:20;;;;;;;;;;;;;;;;;;5081512;28;20304;-83
2022/08/23 14:39:46;;;;;;;;;;;;;;;;;;5115950;28;20372;-83
2022/08/23 14:42:11;;;;;;;;;;;;;;;;;;5115976;28;19964;-83
2022/08/23 14:44:36;;;;;;;;;;;;;;;;;;5080952;28;19955;-83
2022/08/23 14:47:03;;;;;;;;;;;;;;;;;;5098044;28;19916;-83
2022/08/23 14:49:28;;;;;;;;;;;;;;;;;;5116176;28;19922;-83
2022/08/23 14:51:53;;;;;;;;;;;;;;;;;;5115840;28;19915;-83
2022/08/23 14:54:20;;;;;;;;;;;;;;;;;;5080252;28;19922;-82
2022/08/23 14:56:45;;;;;;;;;;;;;;;;;;5097991;28;19915;-83
2022/08/23 14:59:11;;;;;;;;;;;;;;;;;;5097944;28;19972;-83
2022/08/23 15:01:36;;;;;;;;;;;;;;;;;;5097400;28;19920;-83
2022/08/23 15:04:02;;;;;;;;;;;;;;;;;;5097484;28;20010;-83
2022/08/23 15:06:27;;;;;;;;;;;;;;;;;;5097663;28;19923;-83
2022/08/23 15:08:53;;;;;;;;;;;;;;;;;;5080570;28;19916;-83
2022/08/23 15:11:18;;;;;;;;;;;;;;;;;;5080516;28;19916;-83
2022/08/23 15:13:45;;;;;;;;;;;;;;;;;;5097371;28;19916;-82
2022/08/23 15:16:11;;;;;;;;;;;;;;;;;;5097510;28;20245;-82
2022/08/23 15:18:37;;;;;;;;;;;;;;;;;;5097377;28;19927;-82
2022/08/23 15:21:02;;;;;;;;;;;;;;;;;;5081029;28;19916;-83
2022/08/23 15:23:27;;;;;;;;;;;;;;;;;;5115132;28;19923;-83
2022/08/23 15:25:53;;;;;;;;;;;;;;;;;;5115280;28;20012;-82
2022/08/23 15:28:18;;;;;;;;;;;;;;;;;;5097025;28;19922;-82
2022/08/23 15:30:44;;;;;;;;;;;;;;;;;;5080416;28;19916;-82
2022/08/23 15:33:09;;;;;;;;;;;;;;;;;;5097130;28;19972;-82
2022/08/23 15:35:39;;;;;;;;;;;;;;;;;;5097250;28;20306;-84
2022/08/23 15:38:05;;;;;;;;;;;;;;;;;;5096902;28;20280;-82
2022/08/23 15:40:30;;;;;;;;;;;;;;;;;;5080396;28;19938;-83
2022/08/23 15:42:55;;;;;;;;;;;;;;;;;;5097114;28;20310;-82
2022/08/23 15:45:21;;;;;;;;;;;;;;;;;;5115296;28;19915;-83
2022/08/23 15:47:46;;;;;;;;;;;;;;;;;;5079994;28;19915;-83
2022/08/23 15:50:11;;;;;;;;;;;;;;;;;;5114955;28;19916;-83
2022/08/23 15:52:37;;;;;;;;;;;;;;;;;;5114756;28;20245;-83
2022/08/23 15:55:03;;;;;;;;;;;;;;;;;;5097114;28;20265;-82
2022/08/23 15:57:28;;;;;;;;;;;;;;;;;;5114938;28;19916;-83
2022/08/23 15:59:54;;;;;;;;;;;;;;;;;;5093208;28;19927;-83
2022/08/23 16:02:20;;;;;;;;;;;;;;;;;;5076861;28;19916;-83
2022/08/23 16:04:45;;;;;;;;;;;;;;;;;;5093411;28;19916;-83
2022/08/23 16:07:12;;;;;;;;;;;;;;;;;;5093034;28;19923;-83
2022/08/23 16:09:37;;;;;;;;;;;;;;;;;;5076735;28;19916;-83
2022/08/23 16:12:03;;;;;;;;;;;;;;;;;;5093338;28;19916;-83
2022/08/23 16:14:31;;;;;;;;;;;;;;;;;;5076765;28;19916;-82
2022/08/23 16:16:56;;;;;;;;;;;;;;;;;;5077042;28;20330;-82
2022/08/23 16:19:22;;;;;;;;;;;;;;;;;;5093236;28;19916;-82
2022/08/23 16:21:47;;;;;;;;;;;;;;;;;;5076390;28;19916;-83
2022/08/23 16:24:12;;;;;;;;;;;;;;;;;;5093395;28;19922;-83
2022/08/23 16:26:38;;;;;;;;;;;;;;;;;;5093459;28;19923;-83
2022/08/23 16:29:05;;;;;;;;;;;;;;;;;;5094608;28;20002;-83
2022/08/23 16:31:30;;;;;;;;;;;;;;;;;;5093438;28;19915;-83
2022/08/23 16:33:55;;;;;;;;;;;;;;;;;;5076711;28;20006;-83
2022/08/23 16:36:21;;;;;;;;;;;;;;;;;;5076340;28;19912;-81
2022/08/23 16:38:46;;;;;;;;;;;;;;;;;;5076351;28;19974;-83
2022/08/23 16:41:12;;;;;;;;;;;;;;;;;;5093433;28;19920;-82
2022/08/23 16:43:37;;;;;;;;;;;;;;;;;;5094249;28;19912;-83
2022/08/23 16:46:03;;;;;;;;;;;;;;;;;;5094278;28;19923;-83
2022/08/23 16:48:29;;;;;;;;;;;;;;;;;;5095513;28;19977;-81
2022/08/23 16:50:54;;;;;;;;;;;;;;;;;;5097578;28;19916;-81
2022/08/23 16:53:20;;;;;;;;;;;;;;;;;;5096715;28;19916;-81
2022/08/23 16:55:45;;;;;;;;;;;;;;;;;;5096424;28;19920;-82
2022/08/23 16:58:11;;;;;;;;;;;;;;;;;;5079633;28;19916;-82
2022/08/23 17:00:37;;;;;;;;;;;;;;;;;;5108833;28;19977;-81
2022/08/23 17:03:03;;;;;;;;;;;;;;;;;;5100303;28;19916;-81